sensor_id;sensor_type;location;lat;lon;timestamp;pressure;altitude;pressure_sealevel;temperature;humidity
49063;BME280;34876;51.464;-0.150;2023-07-02T00:03:23;100947.75;;;23.95;43.61
49063;BME280;34876;51.464;-0.150;2023-07-02T00:05:53;100948.54;;;23.96;43.59
49063;BME280;34876;51.464;-0.150;2023-07-02T00:08:22;100948.03;;;23.95;43.63
49063;BME280;34876;51.464;-0.150;2023-07-02T00:10:51;100949.81;;;23.94;43.66
49063;BME280;34876;51.464;-0.150;2023-07-02T00:13:21;100952.94;;;23.92;43.72
49063;BME280;34876;51.464;-0.150;2023-07-02T00:15:50;100955.35;;;23.94;43.69
49063;BME280;34876;51.464;-0.150;2023-07-02T00:18:19;100952.51;;;23.92;43.76
49063;BME280;34876;51.464;-0.150;2023-07-02T00:20:48;100955.90;;;23.92;43.77
49063;BME280;34876;51.464;-0.150;2023-07-02T00:23:17;100954.84;;;23.90;43.81
49063;BME280;34876;51.464;-0.150;2023-07-02T00:25:46;100956.36;;;23.91;43.81
49063;BME280;34876;51.464;-0.150;2023-07-02T00:28:15;100952.47;;;23.88;43.87
49063;BME280;34876;51.464;-0.150;2023-07-02T00:30:44;100953.77;;;23.90;43.83
49063;BME280;34876;51.464;-0.150;2023-07-02T00:33:12;100952.62;;;23.90;43.83
49063;BME280;34876;51.464;-0.150;2023-07-02T00:35:41;100954.08;;;23.90;43.86
49063;BME280;34876;51.464;-0.150;2023-07-02T00:38:10;100953.17;;;23.91;43.81
49063;BME280;34876;51.464;-0.150;2023-07-02T00:40:39;100951.39;;;23.76;44.11
49063;BME280;34876;51.464;-0.150;2023-07-02T00:43:08;100951.76;;;23.90;43.86
49063;BME280;34876;51.464;-0.150;2023-07-02T00:45:37;100948.43;;;23.88;43.89
49063;BME280;34876;51.464;-0.150;2023-07-02T00:48:06;100951.18;;;23.91;43.81
49063;BME280;34876;51.464;-0.150;2023-07-02T00:50:35;100952.51;;;23.93;43.74
49063;BME280;34876;51.464;-0.150;2023-07-02T00:53:04;100956.40;;;23.94;43.72
49063;BME280;34876;51.464;-0.150;2023-07-02T00:55:34;100954.68;;;23.89;43.82
49063;BME280;34876;51.464;-0.150;2023-07-02T00:58:02;100953.23;;;23.87;43.89
49063;BME280;34876;51.464;-0.150;2023-07-02T01:00:32;100955.99;;;23.87;43.88
49063;BME280;34876;51.464;-0.150;2023-07-02T01:03:01;100956.72;;;23.85;43.90
49063;BME280;34876;51.464;-0.150;2023-07-02T01:05:31;100961.88;;;23.85;43.90
49063;BME280;34876;51.464;-0.150;2023-07-02T01:08:00;100962.60;;;23.85;43.91
49063;BME280;34876;51.464;-0.150;2023-07-02T01:10:29;100965.70;;;23.84;43.94
49063;BME280;34876;51.464;-0.150;2023-07-02T01:13:01;100969.03;;;23.84;43.92
49063;BME280;34876;51.464;-0.150;2023-07-02T01:15:32;100971.55;;;23.83;43.93
49063;BME280;34876;51.464;-0.150;2023-07-02T01:18:03;100976.25;;;23.81;43.98
49063;BME280;34876;51.464;-0.150;2023-07-02T01:20:33;100979.56;;;23.82;43.95
49063;BME280;34876;51.464;-0.150;2023-07-02T01:23:03;100978.89;;;23.80;43.97
49063;BME280;34876;51.464;-0.150;2023-07-02T01:25:32;100979.61;;;23.79;44.00
49063;BME280;34876;51.464;-0.150;2023-07-02T01:28:01;100982.34;;;23.79;44.00
49063;BME280;34876;51.464;-0.150;2023-07-02T01:30:29;100981.62;;;23.80;43.96
49063;BME280;34876;51.464;-0.150;2023-07-02T01:32:59;100982.91;;;23.79;43.99
49063;BME280;34876;51.464;-0.150;2023-07-02T01:35:27;100983.54;;;23.77;44.01
49063;BME280;34876;51.464;-0.150;2023-07-02T01:37:56;100984.91;;;23.75;44.06
49063;BME280;34876;51.464;-0.150;2023-07-02T01:40:25;100990.01;;;23.77;44.02
49063;BME280;34876;51.464;-0.150;2023-07-02T01:42:54;100991.15;;;23.77;43.99
49063;BME280;34876;51.464;-0.150;2023-07-02T01:45:22;100995.09;;;23.78;43.99
49063;BME280;34876;51.464;-0.150;2023-07-02T01:47:51;100992.10;;;23.77;43.98
49063;BME280;34876;51.464;-0.150;2023-07-02T01:50:20;100991.29;;;23.75;44.01
49063;BME280;34876;51.464;-0.150;2023-07-02T01:52:49;100993.36;;;23.75;44.03
49063;BME280;34876;51.464;-0.150;2023-07-02T01:55:18;100993.42;;;23.75;44.04
49063;BME280;34876;51.464;-0.150;2023-07-02T01:57:48;100992.39;;;23.74;44.01
49063;BME280;34876;51.464;-0.150;2023-07-02T02:00:17;100991.21;;;23.74;44.02
49063;BME280;34876;51.464;-0.150;2023-07-02T02:02:47;100991.61;;;23.75;44.01
49063;BME280;34876;51.464;-0.150;2023-07-02T02:05:15;100987.85;;;23.73;44.03
49063;BME280;34876;51.464;-0.150;2023-07-02T02:07:45;100987.03;;;23.73;44.01
49063;BME280;34876;51.464;-0.150;2023-07-02T02:10:14;100990.62;;;23.71;44.03
49063;BME280;34876;51.464;-0.150;2023-07-02T02:12:42;100991.48;;;23.73;44.00
49063;BME280;34876;51.464;-0.150;2023-07-02T02:15:11;100994.48;;;23.73;43.97
49063;BME280;34876;51.464;-0.150;2023-07-02T02:17:40;100994.21;;;23.72;44.00
49063;BME280;34876;51.464;-0.150;2023-07-02T02:20:10;100996.14;;;23.72;43.98
49063;BME280;34876;51.464;-0.150;2023-07-02T02:22:39;100993.31;;;23.70;44.01
49063;BME280;34876;51.464;-0.150;2023-07-02T02:25:08;100997.93;;;23.70;44.02
49063;BME280;34876;51.464;-0.150;2023-07-02T02:27:38;100998.90;;;23.69;43.98
49063;BME280;34876;51.464;-0.150;2023-07-02T02:30:07;101000.48;;;23.69;44.02
49063;BME280;34876;51.464;-0.150;2023-07-02T02:32:36;101002.30;;;23.68;44.03
49063;BME280;34876;51.464;-0.150;2023-07-02T02:35:06;101002.11;;;23.67;44.00
49063;BME280;34876;51.464;-0.150;2023-07-02T02:37:37;101005.49;;;23.67;44.02
49063;BME280;34876;51.464;-0.150;2023-07-02T02:40:07;101006.28;;;23.66;44.00
49063;BME280;34876;51.464;-0.150;2023-07-02T02:42:36;101004.92;;;23.67;43.95
49063;BME280;34876;51.464;-0.150;2023-07-02T02:45:07;101004.23;;;23.67;43.91
49063;BME280;34876;51.464;-0.150;2023-07-02T02:47:37;101006.28;;;23.66;43.95
49063;BME280;34876;51.464;-0.150;2023-07-02T02:50:07;101009.08;;;23.65;43.89
49063;BME280;34876;51.464;-0.150;2023-07-02T02:52:36;101010.75;;;23.64;43.93
49063;BME280;34876;51.464;-0.150;2023-07-02T02:55:07;101009.69;;;23.63;43.95
49063;BME280;34876;51.464;-0.150;2023-07-02T02:57:36;101011.58;;;23.64;43.94
49063;BME280;34876;51.464;-0.150;2023-07-02T03:00:06;101011.29;;;23.65;43.87
49063;BME280;34876;51.464;-0.150;2023-07-02T03:02:36;101011.44;;;23.62;43.95
49063;BME280;34876;51.464;-0.150;2023-07-02T03:05:06;101013.26;;;23.63;43.90
49063;BME280;34876;51.464;-0.150;2023-07-02T03:07:36;101013.15;;;23.63;43.87
49063;BME280;34876;51.464;-0.150;2023-07-02T03:10:06;101012.87;;;23.64;43.87
49063;BME280;34876;51.464;-0.150;2023-07-02T03:12:36;101014.74;;;23.64;43.85
49063;BME280;34876;51.464;-0.150;2023-07-02T03:15:06;101014.59;;;23.62;43.87
49063;BME280;34876;51.464;-0.150;2023-07-02T03:17:36;101013.96;;;23.59;43.95
49063;BME280;34876;51.464;-0.150;2023-07-02T03:20:06;101016.16;;;23.60;43.93
49063;BME280;34876;51.464;-0.150;2023-07-02T03:22:36;101020.61;;;23.60;43.94
49063;BME280;34876;51.464;-0.150;2023-07-02T03:25:05;101017.11;;;23.59;43.91
49063;BME280;34876;51.464;-0.150;2023-07-02T03:27:34;101018.63;;;23.60;43.90
49063;BME280;34876;51.464;-0.150;2023-07-02T03:30:04;101018.65;;;23.60;43.90
49063;BME280;34876;51.464;-0.150;2023-07-02T03:32:33;101021.87;;;23.62;43.86
49063;BME280;34876;51.464;-0.150;2023-07-02T03:35:02;101023.60;;;23.60;43.88
49063;BME280;34876;51.464;-0.150;2023-07-02T03:37:31;101024.47;;;23.59;43.88
49063;BME280;34876;51.464;-0.150;2023-07-02T03:39:59;101025.36;;;23.59;43.89
49063;BME280;34876;51.464;-0.150;2023-07-02T03:42:29;101026.53;;;23.57;43.94
49063;BME280;34876;51.464;-0.150;2023-07-02T03:45:00;101029.02;;;23.58;43.91
49063;BME280;34876;51.464;-0.150;2023-07-02T03:47:29;101028.51;;;23.56;43.94
49063;BME280;34876;51.464;-0.150;2023-07-02T03:49:59;101030.95;;;23.56;43.94
49063;BME280;34876;51.464;-0.150;2023-07-02T03:52:28;101033.32;;;23.57;43.91
49063;BME280;34876;51.464;-0.150;2023-07-02T03:55:00;101036.41;;;23.57;43.89
49063;BME280;34876;51.464;-0.150;2023-07-02T03:57:30;101036.30;;;23.55;43.93
49063;BME280;34876;51.464;-0.150;2023-07-02T03:59:59;101038.07;;;23.57;43.88
49063;BME280;34876;51.464;-0.150;2023-07-02T04:02:28;101034.18;;;23.56;43.87
49063;BME280;34876;51.464;-0.150;2023-07-02T04:04:57;101035.13;;;23.55;43.89
49063;BME280;34876;51.464;-0.150;2023-07-02T04:07:26;101036.58;;;23.54;43.92
49063;BME280;34876;51.464;-0.150;2023-07-02T04:09:55;101038.53;;;23.55;43.88
49063;BME280;34876;51.464;-0.150;2023-07-02T04:12:24;101043.14;;;23.56;43.85
49063;BME280;34876;51.464;-0.150;2023-07-02T04:14:52;101046.28;;;23.55;43.88
49063;BME280;34876;51.464;-0.150;2023-07-02T04:17:22;101044.05;;;23.55;43.85
49063;BME280;34876;51.464;-0.150;2023-07-02T04:19:54;101044.74;;;23.56;43.80
49063;BME280;34876;51.464;-0.150;2023-07-02T04:22:23;101045.62;;;23.56;43.79
49063;BME280;34876;51.464;-0.150;2023-07-02T04:24:52;101046.87;;;23.54;43.85
49063;BME280;34876;51.464;-0.150;2023-07-02T04:27:21;101050.51;;;23.55;43.77
49063;BME280;34876;51.464;-0.150;2023-07-02T04:29:50;101052.97;;;23.55;43.79
49063;BME280;34876;51.464;-0.150;2023-07-02T04:32:19;101057.37;;;23.55;43.78
49063;BME280;34876;51.464;-0.150;2023-07-02T04:34:49;101055.49;;;23.55;43.77
49063;BME280;34876;51.464;-0.150;2023-07-02T04:37:18;101058.30;;;23.55;43.80
49063;BME280;34876;51.464;-0.150;2023-07-02T04:39:47;101061.75;;;23.55;43.79
49063;BME280;34876;51.464;-0.150;2023-07-02T04:42:16;101063.77;;;23.55;43.77
49063;BME280;34876;51.464;-0.150;2023-07-02T04:44:45;101065.92;;;23.56;43.75
49063;BME280;34876;51.464;-0.150;2023-07-02T04:47:14;101067.22;;;23.56;43.74
49063;BME280;34876;51.464;-0.150;2023-07-02T04:49:43;101066.72;;;23.55;43.73
49063;BME280;34876;51.464;-0.150;2023-07-02T04:52:13;101067.04;;;23.58;43.66
49063;BME280;34876;51.464;-0.150;2023-07-02T04:54:42;101072.87;;;23.58;43.64
49063;BME280;34876;51.464;-0.150;2023-07-02T04:57:11;101073.40;;;23.57;43.65
49063;BME280;34876;51.464;-0.150;2023-07-02T04:59:41;101077.26;;;23.59;43.58
49063;BME280;34876;51.464;-0.150;2023-07-02T05:02:11;101081.09;;;23.60;43.57
49063;BME280;34876;51.464;-0.150;2023-07-02T05:04:40;101080.90;;;23.59;43.59
49063;BME280;34876;51.464;-0.150;2023-07-02T05:07:09;101079.96;;;23.60;43.54
49063;BME280;34876;51.464;-0.150;2023-07-02T05:09:38;101080.47;;;23.62;43.49
49063;BME280;34876;51.464;-0.150;2023-07-02T05:12:08;101085.09;;;23.67;43.36
49063;BME280;34876;51.464;-0.150;2023-07-02T05:14:37;101089.03;;;23.65;43.39
49063;BME280;34876;51.464;-0.150;2023-07-02T05:17:06;101090.35;;;23.63;43.41
49063;BME280;34876;51.464;-0.150;2023-07-02T05:19:34;101092.08;;;23.64;43.42
49063;BME280;34876;51.464;-0.150;2023-07-02T05:22:03;101090.57;;;23.65;43.34
49063;BME280;34876;51.464;-0.150;2023-07-02T05:24:32;101094.29;;;23.62;43.41
49063;BME280;34876;51.464;-0.150;2023-07-02T05:27:01;101101.11;;;23.63;43.41
49063;BME280;34876;51.464;-0.150;2023-07-02T05:29:30;101103.11;;;23.65;43.30
49063;BME280;34876;51.464;-0.150;2023-07-02T05:31:59;101101.07;;;23.64;43.31
49063;BME280;34876;51.464;-0.150;2023-07-02T05:34:27;101097.23;;;23.64;43.30
49063;BME280;34876;51.464;-0.150;2023-07-02T05:36:57;101100.55;;;23.68;43.20
49063;BME280;34876;51.464;-0.150;2023-07-02T05:39:25;101098.54;;;23.67;43.22
49063;BME280;34876;51.464;-0.150;2023-07-02T05:41:54;101100.05;;;23.68;43.21
49063;BME280;34876;51.464;-0.150;2023-07-02T05:44:23;101099.70;;;23.70;43.12
49063;BME280;34876;51.464;-0.150;2023-07-02T05:46:53;101105.19;;;23.69;43.15
49063;BME280;34876;51.464;-0.150;2023-07-02T05:49:22;101105.93;;;23.67;43.17
49063;BME280;34876;51.464;-0.150;2023-07-02T05:51:50;101106.49;;;23.71;43.08
49063;BME280;34876;51.464;-0.150;2023-07-02T05:54:19;101107.01;;;23.72;43.04
49063;BME280;34876;51.464;-0.150;2023-07-02T05:56:48;101105.22;;;23.71;43.04
49063;BME280;34876;51.464;-0.150;2023-07-02T05:59:17;101105.32;;;23.70;43.06
49063;BME280;34876;51.464;-0.150;2023-07-02T06:01:46;101103.85;;;23.69;43.08
49063;BME280;34876;51.464;-0.150;2023-07-02T06:04:14;101103.79;;;23.70;43.07
49063;BME280;34876;51.464;-0.150;2023-07-02T06:06:43;101106.17;;;23.73;42.97
49063;BME280;34876;51.464;-0.150;2023-07-02T06:09:13;101108.77;;;23.76;42.86
49063;BME280;34876;51.464;-0.150;2023-07-02T06:11:41;101112.99;;;23.70;43.03
49063;BME280;34876;51.464;-0.150;2023-07-02T06:14:10;101113.88;;;23.71;42.97
49063;BME280;34876;51.464;-0.150;2023-07-02T06:16:40;101114.23;;;23.75;42.86
49063;BME280;34876;51.464;-0.150;2023-07-02T06:19:09;101114.85;;;23.74;42.86
49063;BME280;34876;51.464;-0.150;2023-07-02T06:21:39;101115.95;;;23.76;42.80
49063;BME280;34876;51.464;-0.150;2023-07-02T06:24:08;101117.40;;;23.77;42.74
49063;BME280;34876;51.464;-0.150;2023-07-02T06:26:37;101118.13;;;23.76;42.78
49063;BME280;34876;51.464;-0.150;2023-07-02T06:29:06;101120.04;;;23.80;42.69
49063;BME280;34876;51.464;-0.150;2023-07-02T06:31:35;101120.34;;;23.79;42.67
49063;BME280;34876;51.464;-0.150;2023-07-02T06:34:05;101122.62;;;23.83;42.61
49063;BME280;34876;51.464;-0.150;2023-07-02T06:36:34;101122.29;;;23.82;42.61
49063;BME280;34876;51.464;-0.150;2023-07-02T06:39:03;101125.87;;;23.84;42.58
49063;BME280;34876;51.464;-0.150;2023-07-02T06:41:32;101125.79;;;23.85;42.48
49063;BME280;34876;51.464;-0.150;2023-07-02T06:44:01;101125.06;;;23.86;42.47
49063;BME280;34876;51.464;-0.150;2023-07-02T06:46:30;101127.08;;;23.89;42.37
49063;BME280;34876;51.464;-0.150;2023-07-02T06:48:59;101125.54;;;24.05;41.98
49063;BME280;34876;51.464;-0.150;2023-07-02T06:51:28;101127.02;;;23.93;42.27
49063;BME280;34876;51.464;-0.150;2023-07-02T06:53:57;101125.97;;;23.92;42.25
49063;BME280;34876;51.464;-0.150;2023-07-02T06:56:26;101128.35;;;23.90;42.30
49063;BME280;34876;51.464;-0.150;2023-07-02T06:58:55;101128.79;;;23.99;42.04
49063;BME280;34876;51.464;-0.150;2023-07-02T07:01:24;101128.20;;;24.30;41.36
49063;BME280;34876;51.464;-0.150;2023-07-02T07:03:53;101129.46;;;24.07;41.80
49063;BME280;34876;51.464;-0.150;2023-07-02T07:06:22;101133.47;;;24.23;41.46
49063;BME280;34876;51.464;-0.150;2023-07-02T07:08:51;101133.42;;;24.24;41.41
49063;BME280;34876;51.464;-0.150;2023-07-02T07:11:20;101136.28;;;24.06;41.78
49063;BME280;34876;51.464;-0.150;2023-07-02T07:13:49;101139.56;;;24.02;41.90
49063;BME280;34876;51.464;-0.150;2023-07-02T07:16:18;101143.72;;;23.99;41.95
49063;BME280;34876;51.464;-0.150;2023-07-02T07:18:48;101149.03;;;23.96;42.00
49063;BME280;34876;51.464;-0.150;2023-07-02T07:21:17;101149.81;;;23.95;41.99
49063;BME280;34876;51.464;-0.150;2023-07-02T07:23:46;101147.95;;;23.92;41.97
49063;BME280;34876;51.464;-0.150;2023-07-02T07:26:16;101150.03;;;23.93;42.14
49063;BME280;34876;51.464;-0.150;2023-07-02T07:28:45;101149.90;;;23.93;42.11
49063;BME280;34876;51.464;-0.150;2023-07-02T07:31:14;101146.67;;;23.95;42.03
49063;BME280;34876;51.464;-0.150;2023-07-02T07:33:43;101147.14;;;23.85;42.15
49063;BME280;34876;51.464;-0.150;2023-07-02T07:36:13;101146.01;;;23.89;42.13
49063;BME280;34876;51.464;-0.150;2023-07-02T07:38:43;101145.12;;;23.85;42.13
49063;BME280;34876;51.464;-0.150;2023-07-02T07:41:13;101149.13;;;23.81;42.27
49063;BME280;34876;51.464;-0.150;2023-07-02T07:43:41;101146.86;;;23.82;41.26
49063;BME280;34876;51.464;-0.150;2023-07-02T07:46:10;101147.04;;;23.76;42.43
49063;BME280;34876;51.464;-0.150;2023-07-02T07:48:39;101144.54;;;23.83;42.29
49063;BME280;34876;51.464;-0.150;2023-07-02T07:51:08;101146.20;;;23.85;42.26
49063;BME280;34876;51.464;-0.150;2023-07-02T07:53:38;101146.94;;;23.63;42.67
49063;BME280;34876;51.464;-0.150;2023-07-02T07:56:06;101142.85;;;23.82;42.28
49063;BME280;34876;51.464;-0.150;2023-07-02T07:58:35;101136.39;;;23.90;42.13
49063;BME280;34876;51.464;-0.150;2023-07-02T08:01:06;101134.25;;;23.83;42.23
49063;BME280;34876;51.464;-0.150;2023-07-02T08:03:37;101136.13;;;23.88;42.15
49063;BME280;34876;51.464;-0.150;2023-07-02T08:06:06;101132.48;;;23.91;42.03
49063;BME280;34876;51.464;-0.150;2023-07-02T08:08:35;101129.39;;;23.89;41.98
49063;BME280;34876;51.464;-0.150;2023-07-02T08:11:05;101129.79;;;23.90;42.03
49063;BME280;34876;51.464;-0.150;2023-07-02T08:13:34;101134.32;;;23.90;42.04
49063;BME280;34876;51.464;-0.150;2023-07-02T08:16:03;101133.44;;;23.91;41.99
49063;BME280;34876;51.464;-0.150;2023-07-02T08:18:32;101131.29;;;24.20;41.45
49063;BME280;34876;51.464;-0.150;2023-07-02T08:21:01;101128.16;;;24.07;41.63
49063;BME280;34876;51.464;-0.150;2023-07-02T08:23:30;101128.65;;;24.04;41.75
49063;BME280;34876;51.464;-0.150;2023-07-02T08:26:00;101127.30;;;23.90;42.10
49063;BME280;34876;51.464;-0.150;2023-07-02T08:28:29;101129.75;;;23.92;42.18
49063;BME280;34876;51.464;-0.150;2023-07-02T08:30:58;101123.72;;;23.75;42.24
49063;BME280;34876;51.464;-0.150;2023-07-02T08:33:27;101121.01;;;23.89;42.19
49063;BME280;34876;51.464;-0.150;2023-07-02T08:35:56;101118.23;;;23.78;42.18
49063;BME280;34876;51.464;-0.150;2023-07-02T08:38:25;101116.48;;;23.92;39.62
49063;BME280;34876;51.464;-0.150;2023-07-02T08:40:54;101118.76;;;24.12;41.65
49063;BME280;34876;51.464;-0.150;2023-07-02T08:43:26;101122.70;;;24.15;41.62
49063;BME280;34876;51.464;-0.150;2023-07-02T08:45:55;101120.69;;;23.97;41.92
49063;BME280;34876;51.464;-0.150;2023-07-02T08:48:25;101121.92;;;24.01;41.91
49063;BME280;34876;51.464;-0.150;2023-07-02T08:50:56;101120.51;;;23.99;41.95
49063;BME280;34876;51.464;-0.150;2023-07-02T08:53:25;101124.86;;;23.91;42.30
49063;BME280;34876;51.464;-0.150;2023-07-02T08:55:54;101124.78;;;23.95;42.20
49063;BME280;34876;51.464;-0.150;2023-07-02T08:58:22;101126.34;;;23.94;42.22
49063;BME280;34876;51.464;-0.150;2023-07-02T09:01:08;101121.68;;;23.74;40.10
49063;BME280;34876;51.464;-0.150;2023-07-02T09:03:37;101120.83;;;23.77;42.51
49063;BME280;34876;51.464;-0.150;2023-07-02T09:06:08;101117.57;;;23.95;42.15
49063;BME280;34876;51.464;-0.150;2023-07-02T09:08:37;101117.43;;;23.97;41.69
49063;BME280;34876;51.464;-0.150;2023-07-02T09:11:08;101116.99;;;23.88;42.00
49063;BME280;34876;51.464;-0.150;2023-07-02T09:13:46;101117.74;;;24.02;40.05
49063;BME280;34876;51.464;-0.150;2023-07-02T09:16:23;101122.91;;;23.97;42.14
49063;BME280;34876;51.464;-0.150;2023-07-02T09:19:02;101112.67;;;23.80;41.82
49063;BME280;34876;51.464;-0.150;2023-07-02T09:21:40;101115.74;;;23.73;41.89
49063;BME280;34876;51.464;-0.150;2023-07-02T09:24:14;101114.36;;;23.70;42.37
49063;BME280;34876;51.464;-0.150;2023-07-02T09:26:45;101115.14;;;23.74;41.95
49063;BME280;34876;51.464;-0.150;2023-07-02T09:29:18;101112.34;;;23.93;42.34
49063;BME280;34876;51.464;-0.150;2023-07-02T09:31:48;101115.56;;;23.80;42.10
49063;BME280;34876;51.464;-0.150;2023-07-02T09:34:17;101112.56;;;23.70;42.91
49063;BME280;34876;51.464;-0.150;2023-07-02T09:36:46;101111.50;;;23.76;42.86
49063;BME280;34876;51.464;-0.150;2023-07-02T09:39:19;101120.04;;;24.04;42.22
49063;BME280;34876;51.464;-0.150;2023-07-02T09:41:50;101119.70;;;24.22;41.80
49063;BME280;34876;51.464;-0.150;2023-07-02T09:44:26;101115.38;;;24.39;41.41
49063;BME280;34876;51.464;-0.150;2023-07-02T09:47:01;101117.13;;;24.16;41.95
49063;BME280;34876;51.464;-0.150;2023-07-02T09:49:33;101114.07;;;24.03;41.29
49063;BME280;34876;51.464;-0.150;2023-07-02T09:52:05;101117.98;;;23.98;42.48
49063;BME280;34876;51.464;-0.150;2023-07-02T09:54:36;101115.46;;;23.92;42.58
49063;BME280;34876;51.464;-0.150;2023-07-02T09:57:06;101113.22;;;23.82;42.72
49063;BME280;34876;51.464;-0.150;2023-07-02T09:59:38;101113.24;;;23.85;42.65
49063;BME280;34876;51.464;-0.150;2023-07-02T10:02:09;101114.95;;;23.83;42.87
49063;BME280;34876;51.464;-0.150;2023-07-02T10:04:40;101108.95;;;23.90;42.46
49063;BME280;34876;51.464;-0.150;2023-07-02T10:07:11;101111.55;;;23.86;42.58
49063;BME280;34876;51.464;-0.150;2023-07-02T10:09:44;101112.49;;;23.87;42.39
49063;BME280;34876;51.464;-0.150;2023-07-02T10:12:16;101107.28;;;23.71;42.86
49063;BME280;34876;51.464;-0.150;2023-07-02T10:14:46;101109.31;;;23.78;42.80
49063;BME280;34876;51.464;-0.150;2023-07-02T10:17:26;101108.88;;;23.77;39.50
49063;BME280;34876;51.464;-0.150;2023-07-02T10:19:58;101111.84;;;23.95;42.33
49063;BME280;34876;51.464;-0.150;2023-07-02T10:22:27;101112.09;;;23.88;42.20
49063;BME280;34876;51.464;-0.150;2023-07-02T10:24:58;101110.83;;;23.60;42.64
49063;BME280;34876;51.464;-0.150;2023-07-02T10:27:36;101110.88;;;23.68;42.84
49063;BME280;34876;51.464;-0.150;2023-07-02T10:30:07;101118.77;;;23.62;43.08
49063;BME280;34876;51.464;-0.150;2023-07-02T10:32:43;101116.30;;;23.78;42.26
49063;BME280;34876;51.464;-0.150;2023-07-02T10:35:14;101113.44;;;23.67;42.88
49063;BME280;34876;51.464;-0.150;2023-07-02T10:37:42;101112.57;;;23.73;42.71
49063;BME280;34876;51.464;-0.150;2023-07-02T10:40:13;101109.77;;;23.78;42.69
49063;BME280;34876;51.464;-0.150;2023-07-02T10:42:46;101113.08;;;23.80;42.53
49063;BME280;34876;51.464;-0.150;2023-07-02T10:45:17;101115.94;;;23.83;42.29
49063;BME280;34876;51.464;-0.150;2023-07-02T10:47:46;101111.19;;;23.96;42.38
49063;BME280;34876;51.464;-0.150;2023-07-02T10:50:16;101118.82;;;23.80;42.63
49063;BME280;34876;51.464;-0.150;2023-07-02T10:52:47;101116.78;;;23.75;42.72
49063;BME280;34876;51.464;-0.150;2023-07-02T10:55:17;101119.58;;;23.94;42.42
49063;BME280;34876;51.464;-0.150;2023-07-02T10:57:48;101117.55;;;23.95;42.26
49063;BME280;34876;51.464;-0.150;2023-07-02T11:00:18;101123.35;;;23.87;42.10
49063;BME280;34876;51.464;-0.150;2023-07-02T11:02:49;101123.58;;;23.87;42.40
49063;BME280;34876;51.464;-0.150;2023-07-02T11:05:18;101124.14;;;23.83;42.62
49063;BME280;34876;51.464;-0.150;2023-07-02T11:07:48;101118.47;;;23.86;42.32
49063;BME280;34876;51.464;-0.150;2023-07-02T11:10:20;101117.19;;;23.90;42.19
49063;BME280;34876;51.464;-0.150;2023-07-02T11:12:49;101117.91;;;23.88;42.32
49063;BME280;34876;51.464;-0.150;2023-07-02T11:15:18;101113.07;;;23.86;42.48
49063;BME280;34876;51.464;-0.150;2023-07-02T11:17:48;101120.32;;;23.83;42.53
49063;BME280;34876;51.464;-0.150;2023-07-02T11:20:19;101118.03;;;23.53;43.06
49063;BME280;34876;51.464;-0.150;2023-07-02T11:22:47;101112.93;;;23.67;39.98
49063;BME280;34876;51.464;-0.150;2023-07-02T11:25:17;101117.95;;;23.90;42.46
49063;BME280;34876;51.464;-0.150;2023-07-02T11:28:02;101113.85;;;23.94;42.26
49063;BME280;34876;51.464;-0.150;2023-07-02T11:30:32;101106.33;;;24.05;42.08
49063;BME280;34876;51.464;-0.150;2023-07-02T11:33:03;101106.97;;;23.72;42.57
49063;BME280;34876;51.464;-0.150;2023-07-02T11:35:34;101107.93;;;23.86;42.47
49063;BME280;34876;51.464;-0.150;2023-07-02T11:38:04;101107.11;;;23.91;42.45
49063;BME280;34876;51.464;-0.150;2023-07-02T11:40:34;101111.18;;;23.73;42.68
49063;BME280;34876;51.464;-0.150;2023-07-02T11:43:03;101108.18;;;23.70;42.80
49063;BME280;34876;51.464;-0.150;2023-07-02T11:45:33;101103.67;;;23.85;42.19
49063;BME280;34876;51.464;-0.150;2023-07-02T11:48:01;101091.90;;;24.02;39.62
49063;BME280;34876;51.464;-0.150;2023-07-02T11:50:31;101098.78;;;23.95;41.86
49063;BME280;34876;51.464;-0.150;2023-07-02T11:52:59;101093.55;;;23.88;42.52
49063;BME280;34876;51.464;-0.150;2023-07-02T11:55:30;101097.61;;;23.76;41.55
49063;BME280;34876;51.464;-0.150;2023-07-02T11:57:58;101097.74;;;23.83;42.61
49063;BME280;34876;51.464;-0.150;2023-07-02T12:00:27;101101.95;;;23.61;42.73
49063;BME280;34876;51.464;-0.150;2023-07-02T12:02:56;101108.38;;;23.80;42.59
49063;BME280;34876;51.464;-0.150;2023-07-02T12:05:26;101106.80;;;23.79;42.80
49063;BME280;34876;51.464;-0.150;2023-07-02T12:07:55;101103.88;;;23.79;42.66
49063;BME280;34876;51.464;-0.150;2023-07-02T12:10:26;101107.45;;;24.07;40.11
49063;BME280;34876;51.464;-0.150;2023-07-02T12:12:56;101109.93;;;24.02;41.40
49063;BME280;34876;51.464;-0.150;2023-07-02T12:15:31;101108.03;;;23.73;42.10
49063;BME280;34876;51.464;-0.150;2023-07-02T12:18:01;101107.53;;;23.67;42.03
49063;BME280;34876;51.464;-0.150;2023-07-02T12:20:29;101104.86;;;23.60;41.22
49063;BME280;34876;51.464;-0.150;2023-07-02T12:23:00;101104.61;;;23.50;33.14
49063;BME280;34876;51.464;-0.150;2023-07-02T12:25:29;101106.56;;;23.67;40.86
49063;BME280;34876;51.464;-0.150;2023-07-02T12:28:05;101103.81;;;23.63;42.43
49063;BME280;34876;51.464;-0.150;2023-07-02T12:30:34;101101.60;;;23.72;33.82
49063;BME280;34876;51.464;-0.150;2023-07-02T12:33:04;101104.20;;;23.74;42.50
49063;BME280;34876;51.464;-0.150;2023-07-02T12:35:32;101101.87;;;23.73;42.43
49063;BME280;34876;51.464;-0.150;2023-07-02T12:38:00;101099.33;;;23.38;41.52
49063;BME280;34876;51.464;-0.150;2023-07-02T12:40:29;101096.57;;;23.58;42.94
49063;BME280;34876;51.464;-0.150;2023-07-02T12:42:58;101099.63;;;23.39;43.00
49063;BME280;34876;51.464;-0.150;2023-07-02T12:45:27;101090.57;;;23.56;39.34
49063;BME280;34876;51.464;-0.150;2023-07-02T12:47:56;101086.18;;;23.62;42.25
49063;BME280;34876;51.464;-0.150;2023-07-02T12:50:26;101089.21;;;23.85;41.41
49063;BME280;34876;51.464;-0.150;2023-07-02T12:52:55;101092.78;;;23.76;42.74
49063;BME280;34876;51.464;-0.150;2023-07-02T12:55:24;101090.04;;;23.70;42.85